Time;durP1;ratioP1;P1;durP2;ratioP2;P2;SDS_P1;SDS_P2;PMS_P1;PMS_P2;Temp;Humidity;BMP_temperature;BMP_pressure;BME280_temperature;BME280_humidity;BME280_pressure;Samples;Min_cycle;Max_cycle;Signal;HPM_P1;HPM_P2
2024/03/17 00:01:03;;;;;;;12.65;5.70;;;;;;;1.32;100.00;99182.84;6108314;19;20002;-70
2024/03/17 00:03:03;;;;;;;11.02;5.03;;;;;;;1.27;100.00;99179.41;6108905;19;20110;-70
2024/03/17 00:05:04;;;;;;;10.57;4.07;;;;;;;1.25;100.00;99182.44;6106921;19;20385;-70
2024/03/17 00:07:04;;;;;;;7.57;3.90;;;;;;;1.20;100.00;99176.25;6107091;19;20007;-70
2024/03/17 00:09:06;;;;;;;5.57;3.55;;;;;;;1.14;100.00;99180.97;6099559;19;20374;-70
2024/03/17 00:11:06;;;;;;;5.00;3.03;;;;;;;1.05;100.00;99180.06;6108216;19;20076;-70
2024/03/17 00:13:07;;;;;;;6.47;2.70;;;;;;;1.08;100.00;99184.91;6109489;19;20463;-70
2024/03/17 00:15:08;;;;;;;6.05;2.58;;;;;;;1.07;100.00;99180.56;6107609;19;19994;-70
2024/03/17 00:17:08;;;;;;;5.18;2.92;;;;;;;1.07;100.00;99184.09;6106681;19;20405;-70
2024/03/17 00:19:08;;;;;;;5.20;3.10;;;;;;;1.17;100.00;99185.03;6107052;19;20002;-70
2024/03/17 00:21:09;;;;;;;6.60;3.38;;;;;;;1.22;100.00;99185.75;6109083;19;20007;-70
2024/03/17 00:23:11;;;;;;;10.05;4.60;;;;;;;1.29;100.00;99188.09;6108142;19;20002;-70
2024/03/17 00:25:12;;;;;;;9.55;5.18;;;;;;;1.29;100.00;99182.63;6107341;19;20337;-70
2024/03/17 00:27:13;;;;;;;10.00;5.30;;;;;;;1.33;100.00;99183.66;6104825;19;20003;-70
2024/03/17 00:29:14;;;;;;;9.18;4.25;;;;;;;1.37;100.00;99182.75;6108324;19;20370;-70
2024/03/17 00:31:15;;;;;;;8.25;3.80;;;;;;;1.41;100.00;99185.72;6107721;19;20003;-70
2024/03/17 00:33:15;;;;;;;5.35;3.28;;;;;;;1.37;100.00;99173.78;6104879;19;19999;-70
2024/03/17 00:35:20;;;;;;;5.47;3.00;;;;;;;1.34;100.00;99172.47;6107105;19;20010;-70
2024/03/17 00:37:20;;;;;;;8.20;3.35;;;;;;;1.30;100.00;99182.34;6107600;19;20070;-70
2024/03/17 00:39:21;;;;;;;5.22;2.63;;;;;;;1.24;100.00;99189.00;6107107;19;20009;-70
2024/03/17 00:41:21;;;;;;;4.93;2.58;;;;;;;1.22;100.00;99174.03;6107438;19;20003;-70
2024/03/17 00:43:21;;;;;;;4.05;2.60;;;;;;;1.18;100.00;99181.22;6108077;19;20518;-70
2024/03/17 00:45:22;;;;;;;3.70;2.45;;;;;;;1.12;100.00;99178.56;6106566;19;19995;-70
2024/03/17 00:47:22;;;;;;;4.10;2.38;;;;;;;1.09;100.00;99181.09;6104922;19;20009;-70
2024/03/17 00:49:22;;;;;;;7.43;2.90;;;;;;;1.01;100.00;99177.13;6107838;19;20019;-70
2024/03/17 00:51:23;;;;;;;3.55;2.38;;;;;;;0.99;100.00;99183.97;6107160;19;20455;-70
2024/03/17 00:53:23;;;;;;;4.35;2.95;;;;;;;0.98;100.00;99183.16;6107166;19;20032;-70
2024/03/17 00:55:24;;;;;;;6.22;2.95;;;;;;;1.00;100.00;99186.41;6106309;19;20062;-70
2024/03/17 00:57:24;;;;;;;4.43;2.28;;;;;;;1.04;100.00;99192.06;6107746;19;20407;-70
2024/03/17 00:59:24;;;;;;;5.80;3.10;;;;;;;1.06;100.00;99190.66;6106831;19;20090;-70
2024/03/17 01:01:25;;;;;;;4.57;2.47;;;;;;;1.08;100.00;99185.72;6104975;19;20070;-70
2024/03/17 01:03:27;;;;;;;5.45;3.72;;;;;;;1.16;100.00;99184.25;6107209;19;20022;-70
2024/03/17 01:05:27;;;;;;;5.22;3.33;;;;;;;1.18;100.00;99176.56;6105974;19;20009;-70
2024/03/17 01:07:28;;;;;;;6.22;2.88;;;;;;;1.16;100.00;99183.41;6111976;19;20371;-70
2024/03/17 01:09:28;;;;;;;4.68;2.70;;;;;;;1.07;100.00;99180.56;6107671;19;20329;-70
2024/03/17 01:11:28;;;;;;;6.18;3.22;;;;;;;1.03;100.00;99188.53;6099899;19;20569;-70
2024/03/17 01:13:29;;;;;;;6.90;3.05;;;;;;;0.92;100.00;99178.09;6100229;19;20010;-70
2024/03/17 01:15:29;;;;;;;6.35;3.05;;;;;;;0.87;100.00;99181.72;6096787;19;20011;-70
2024/03/17 01:17:29;;;;;;;8.77;3.30;;;;;;;0.93;100.00;99188.69;6104825;19;20014;-70
2024/03/17 01:19:30;;;;;;;5.95;3.78;;;;;;;0.88;100.00;99186.03;6105912;19;20010;-70
2024/03/17 01:21:30;;;;;;;5.85;3.45;;;;;;;0.78;100.00;99188.94;6105205;19;20335;-70
2024/03/17 01:23:31;;;;;;;4.68;2.95;;;;;;;0.76;100.00;99181.06;6105766;19;20464;-70
2024/03/17 01:25:35;;;;;;;5.50;3.55;;;;;;;0.73;100.00;99191.72;6103572;19;20006;-70
2024/03/17 01:27:36;;;;;;;5.40;3.55;;;;;;;0.73;100.00;99187.09;6104354;19;20053;-70
2024/03/17 01:29:36;;;;;;;5.65;3.55;;;;;;;0.78;100.00;99192.47;6103733;19;20459;-70
2024/03/17 01:31:37;;;;;;;6.35;4.20;;;;;;;0.72;100.00;99192.84;6105809;19;20164;-70
2024/03/17 01:33:37;;;;;;;8.75;4.20;;;;;;;0.73;100.00;99189.00;6103023;19;20030;-70
2024/03/17 01:35:38;;;;;;;6.53;3.63;;;;;;;0.72;100.00;99181.94;6102777;19;20021;-70
2024/03/17 01:37:39;;;;;;;9.38;5.72;;;;;;;0.65;100.00;99187.75;6104722;19;20015;-70
2024/03/17 01:39:39;;;;;;;8.38;4.22;;;;;;;0.66;100.00;99180.41;6104912;19;20034;-70
2024/03/17 01:41:40;;;;;;;7.85;4.60;;;;;;;0.56;100.00;99174.00;6104033;19;20007;-70
2024/03/17 01:43:40;;;;;;;9.38;4.47;;;;;;;0.59;100.00;99180.00;6105084;19;20011;-70
2024/03/17 01:45:40;;;;;;;7.90;4.18;;;;;;;0.52;100.00;99172.19;6102530;19;20403;-70
2024/03/17 01:47:41;;;;;;;7.30;4.35;;;;;;;0.54;100.00;99170.78;6104142;19;20043;-70
2024/03/17 01:49:41;;;;;;;8.65;4.68;;;;;;;0.52;100.00;99174.91;6101776;19;20216;-70
2024/03/17 01:51:42;;;;;;;5.97;3.85;;;;;;;0.42;100.00;99173.16;6105293;19;20040;-70
2024/03/17 01:53:42;;;;;;;7.40;4.07;;;;;;;0.42;100.00;99172.34;6103599;19;20017;-70
2024/03/17 01:55:46;;;;;;;9.35;4.45;;;;;;;0.35;100.00;99167.25;6102420;19;20137;-70
2024/03/17 01:57:46;;;;;;;8.45;4.18;;;;;;;0.27;100.00;99173.34;6103622;19;20014;-70
2024/03/17 01:59:47;;;;;;;6.38;4.20;;;;;;;0.21;100.00;99171.78;6104256;19;20357;-70
2024/03/17 02:01:47;;;;;;;7.30;4.05;;;;;;;0.15;100.00;99162.88;6103083;19;20002;-70
2024/03/17 02:03:47;;;;;;;5.63;3.55;;;;;;;0.14;100.00;99166.72;6104928;19;20006;-70
2024/03/17 02:05:48;;;;;;;7.75;4.35;;;;;;;0.10;100.00;99168.41;6101933;19;19999;-70
2024/03/17 02:07:48;;;;;;;6.97;4.38;;;;;;;0.03;100.00;99164.44;6103858;19;20011;-70
2024/03/17 02:09:49;;;;;;;8.32;5.05;;;;;;;-0.04;100.00;99157.44;6105111;19;20455;-70
2024/03/17 02:11:50;;;;;;;8.95;5.03;;;;;;;-0.02;100.00;99173.44;6111709;19;20041;-70
2024/03/17 02:13:51;;;;;;;7.53;5.05;;;;;;;-0.05;100.00;99168.59;6109919;19;20003;-70
2024/03/17 02:15:51;;;;;;;6.75;4.97;;;;;;;-0.06;100.00;99162.34;6109093;19;20450;-70
2024/03/17 02:17:51;;;;;;;7.20;4.53;;;;;;;-0.10;100.00;99161.31;6108799;19;20003;-70
2024/03/17 02:19:52;;;;;;;7.97;4.80;;;;;;;-0.16;100.00;99157.06;6111508;19;20046;-70
2024/03/17 02:21:52;;;;;;;10.07;4.15;;;;;;;-0.18;100.00;99159.22;6110251;19;20002;-70
2024/03/17 02:23:53;;;;;;;4.80;3.65;;;;;;;-0.14;100.00;99148.59;6109782;19;20046;-70
2024/03/17 02:25:53;;;;;;;6.63;4.15;;;;;;;-0.10;100.00;99144.97;6109027;19;20007;-70
2024/03/17 02:27:54;;;;;;;8.32;4.13;;;;;;;-0.10;100.00;99146.91;6108978;19;20628;-70
2024/03/17 02:29:55;;;;;;;6.32;4.15;;;;;;;-0.19;100.00;99146.72;6110009;19;19999;-70
2024/03/17 02:31:55;;;;;;;6.40;4.28;;;;;;;-0.18;100.00;99148.34;6111115;19;20017;-70
2024/03/17 02:33:55;;;;;;;6.32;3.80;;;;;;;-0.10;100.00;99146.91;6108537;19;20593;-70
2024/03/17 02:35:56;;;;;;;7.25;4.00;;;;;;;-0.05;100.00;99139.47;6108711;19;20002;-70
2024/03/17 02:37:56;;;;;;;8.05;3.58;;;;;;;0.08;100.00;99148.00;6110365;19;20007;-70
2024/03/17 02:39:56;;;;;;;6.50;3.72;;;;;;;0.14;100.00;99141.41;6110883;19;20443;-70
2024/03/17 02:41:57;;;;;;;6.82;4.25;;;;;;;0.15;100.00;99143.03;6109696;19;20013;-70
2024/03/17 02:43:57;;;;;;;7.03;4.38;;;;;;;0.23;100.00;99145.91;6109519;19;20332;-70
2024/03/17 02:45:58;;;;;;;8.55;4.43;;;;;;;0.22;100.00;99143.47;6109032;19;20070;-70
2024/03/17 02:47:58;;;;;;;9.50;4.75;;;;;;;0.11;100.00;99136.56;6109355;19;20011;-70
2024/03/17 02:49:58;;;;;;;8.00;4.20;;;;;;;0.15;100.00;99138.38;6109915;19;20382;-70
2024/03/17 02:51:59;;;;;;;5.53;3.65;;;;;;;0.23;100.00;99137.72;6110415;19;20023;-70
2024/03/17 02:54:00;;;;;;;5.78;3.58;;;;;;;0.27;100.00;99132.53;6110459;19;20010;-70
2024/03/17 02:56:00;;;;;;;7.50;4.00;;;;;;;0.34;100.00;99132.16;6107949;19;20014;-70
2024/03/17 02:58:00;;;;;;;6.15;3.53;;;;;;;0.37;100.00;99137.00;6110412;19;20002;-70
2024/03/17 03:00:04;;;;;;;7.70;3.58;;;;;;;0.36;100.00;99136.19;6111015;19;20078;-70
2024/03/17 03:02:04;;;;;;;6.00;3.20;;;;;;;0.28;100.00;99137.66;6109039;19;20011;-70
2024/03/17 03:04:05;;;;;;;6.25;3.35;;;;;;;0.18;100.00;99140.53;6108929;19;20013;-70
2024/03/17 03:06:09;;;;;;;5.30;3.42;;;;;;;0.17;100.00;99138.13;6109093;19;20007;-70
2024/03/17 03:08:09;;;;;;;5.05;3.10;;;;;;;0.13;100.00;99128.91;6109900;19;20036;-70
2024/03/17 03:10:10;;;;;;;6.43;2.80;;;;;;;0.07;100.00;99132.78;6109923;19;20003;-70
2024/03/17 03:12:10;;;;;;;7.03;3.10;;;;;;;0.07;100.00;99143.69;6110019;19;20030;-70
2024/03/17 03:14:11;;;;;;;9.75;3.17;;;;;;;0.05;100.00;99138.53;6111304;19;20425;-70
2024/03/17 03:16:16;;;;;;;5.35;3.53;;;;;;;0.12;100.00;99130.81;6108371;19;20313;-70
2024/03/17 03:18:16;;;;;;;5.18;2.42;;;;;;;0.19;100.00;99136.72;6108193;19;20051;-70
2024/03/17 03:20:17;;;;;;;4.18;2.90;;;;;;;0.24;100.00;99141.25;6110415;19;20003;-70
2024/03/17 03:22:18;;;;;;;5.28;2.80;;;;;;;0.20;100.00;99135.63;6110347;19;20011;-70
2024/03/17 03:24:18;;;;;;;6.10;3.33;;;;;;;0.32;100.00;99128.91;6110204;19;20006;-70
2024/03/17 03:26:18;;;;;;;4.80;2.88;;;;;;;0.33;100.00;99128.59;6107014;19;20351;-70
2024/03/17 03:28:19;;;;;;;5.90;2.80;;;;;;;0.32;100.00;99132.44;6109399;19;20451;-70
2024/03/17 03:30:21;;;;;;;4.40;2.60;;;;;;;0.41;100.00;99129.84;6110632;19;20006;-70
2024/03/17 03:32:21;;;;;;;9.68;2.85;;;;;;;0.40;100.00;99134.50;6109769;19;20089;-70
2024/03/17 03:34:24;;;;;;;5.53;2.88;;;;;;;0.47;100.00;99134.13;6107634;19;20018;-70
2024/03/17 03:36:25;;;;;;;6.68;3.03;;;;;;;0.41;100.00;99130.66;6107350;19;20839;-70
2024/03/17 03:38:25;;;;;;;10.18;2.83;;;;;;;0.47;100.00;99128.69;6108201;19;20007;-70
2024/03/17 03:40:27;;;;;;;5.65;2.97;;;;;;;0.49;100.00;99129.19;6108849;19;20388;-70
2024/03/17 03:42:27;;;;;;;3.60;2.78;;;;;;;0.47;100.00;99140.38;6108748;19;20437;-70
2024/03/17 03:44:28;;;;;;;5.43;3.03;;;;;;;0.45;100.00;99134.44;6109069;19;20006;-70
2024/03/17 03:46:28;;;;;;;4.90;2.50;;;;;;;0.51;100.00;99130.53;6107819;19;20020;-70
2024/03/17 03:48:28;;;;;;;5.95;3.40;;;;;;;0.51;100.00;99138.69;6109479;19;20010;-70
2024/03/17 03:50:29;;;;;;;4.05;3.00;;;;;;;0.55;100.00;99138.91;6109153;19;20380;-70
2024/03/17 03:52:30;;;;;;;8.90;2.85;;;;;;;0.54;100.00;99135.38;6109569;19;20003;-70
2024/03/17 03:54:30;;;;;;;9.18;2.72;;;;;;;0.58;100.00;99135.59;6108511;19;20040;-70
2024/03/17 03:56:30;;;;;;;7.00;3.05;;;;;;;0.52;100.00;99140.31;6106214;19;20007;-70
2024/03/17 03:58:31;;;;;;;7.75;3.45;;;;;;;0.48;100.00;99138.47;6108712;19;20026;-70
2024/03/17 04:00:31;;;;;;;6.10;3.70;;;;;;;0.44;100.00;99132.00;6108894;19;20014;-70
2024/03/17 04:02:34;;;;;;;6.93;3.92;;;;;;;0.42;100.00;99139.66;6109086;19;20428;-70
2024/03/17 04:04:34;;;;;;;7.10;3.13;;;;;;;0.40;100.00;99139.94;6109081;19;20002;-70
2024/03/17 04:06:37;;;;;;;3.80;2.47;;;;;;;0.36;100.00;99143.56;6106790;19;20013;-70
2024/03/17 04:08:41;;;;;;;14.93;3.78;;;;;;;0.31;100.00;99144.44;6108320;19;20442;-70
2024/03/17 04:10:43;;;;;;;3.35;2.65;;;;;;;0.26;100.00;99134.44;6108140;19;20007;-70
2024/03/17 04:12:44;;;;;;;4.40;2.95;;;;;;;0.22;100.00;99140.75;6107925;19;20010;-70
2024/03/17 04:14:45;;;;;;;3.50;2.60;;;;;;;0.18;100.00;99147.91;6108347;19;20077;-70
2024/03/17 04:16:46;;;;;;;5.60;3.45;;;;;;;0.24;100.00;99141.25;6106134;19;20002;-70
2024/03/17 04:18:46;;;;;;;5.32;3.33;;;;;;;0.22;100.00;99146.19;6107753;19;20006;-70
2024/03/17 04:20:46;;;;;;;5.85;3.38;;;;;;;0.20;100.00;99149.22;6107885;19;20619;-70
2024/03/17 04:22:48;;;;;;;4.93;2.80;;;;;;;0.22;100.00;99138.03;6107872;19;20463;-70
2024/03/17 04:24:53;;;;;;;7.60;3.83;;;;;;;0.26;100.00;99145.31;6106944;19;20002;-70
2024/03/17 04:26:53;;;;;;;6.30;3.10;;;;;;;0.36;100.00;99144.38;6106341;19;20012;-70
2024/03/17 04:28:53;;;;;;;4.53;3.17;;;;;;;0.44;100.00;99143.69;6108398;19;20340;-70
2024/03/17 04:31:05;;;;;;;5.88;2.90;;;;;;;0.52;100.00;99150.41;6107381;19;20007;-70
2024/03/17 04:33:06;;;;;;;5.22;3.00;;;;;;;0.55;100.00;99156.03;6107492;19;20014;-70
2024/03/17 04:35:07;;;;;;;5.28;3.10;;;;;;;0.52;100.00;99151.22;6107581;19;20470;-70
2024/03/17 04:37:07;;;;;;;6.47;3.47;;;;;;;0.49;100.00;99157.22;6105025;19;20006;-70
2024/03/17 04:39:08;;;;;;;5.18;3.08;;;;;;;0.54;100.00;99145.47;6107372;19;20011;-70
2024/03/17 04:41:09;;;;;;;6.60;3.15;;;;;;;0.57;100.00;99161.19;6107938;19;20012;-70
2024/03/17 04:43:10;;;;;;;6.07;3.00;;;;;;;0.56;100.00;99156.84;6107901;19;20011;-70
2024/03/17 04:45:10;;;;;;;4.38;3.35;;;;;;;0.56;100.00;99159.56;6106858;19;20022;-70
2024/03/17 04:47:11;;;;;;;6.03;3.28;;;;;;;0.63;100.00;99160.03;6106490;19;20319;-70
2024/03/17 04:49:11;;;;;;;7.68;3.45;;;;;;;0.62;100.00;99166.56;6107518;19;20007;-70
2024/03/17 04:51:16;;;;;;;9.63;3.78;;;;;;;0.67;100.00;99161.06;6108034;19;20011;-70
2024/03/17 04:53:16;;;;;;;4.97;2.83;;;;;;;0.71;100.00;99164.00;6107602;19;20459;-70
2024/03/17 04:55:19;;;;;;;5.03;3.45;;;;;;;0.71;100.00;99161.25;6107795;19;20350;-70
2024/03/17 04:57:20;;;;;;;8.48;3.72;;;;;;;0.73;100.00;99165.31;6107061;19;20018;-70
2024/03/17 04:59:20;;;;;;;7.50;3.50;;;;;;;0.72;100.00;99158.25;6106923;19;20022;-70
2024/03/17 05:01:21;;;;;;;6.72;3.80;;;;;;;0.71;100.00;99161.25;6107932;19;20044;-70
2024/03/17 05:03:21;;;;;;;7.30;3.90;;;;;;;0.71;100.00;99161.25;6107388;19;20086;-70
2024/03/17 05:05:23;;;;;;;5.97;3.55;;;;;;;0.75;100.00;99163.09;6106687;19;20021;-70
2024/03/17 05:07:24;;;;;;;5.82;3.15;;;;;;;0.76;100.00;99164.72;6105590;19;20107;-70
2024/03/17 05:09:24;;;;;;;7.97;3.80;;;;;;;0.77;100.00;99160.09;6097982;19;20520;-70
2024/03/17 05:11:24;;;;;;;7.50;3.20;;;;;;;0.81;100.00;99167.34;6106379;19;20010;-70
2024/03/17 05:13:27;;;;;;;7.05;3.42;;;;;;;0.89;100.00;99174.03;6107320;19;20495;-70
2024/03/17 05:15:28;;;;;;;12.32;3.63;;;;;;;0.90;100.00;99180.28;6104436;19;20007;-70
2024/03/17 05:17:28;;;;;;;7.97;3.78;;;;;;;0.83;100.00;99167.06;6106891;19;20011;-70
2024/03/17 05:19:29;;;;;;;8.32;4.30;;;;;;;0.83;100.00;99180.69;6106738;19;20036;-70
2024/03/17 05:21:30;;;;;;;5.82;3.50;;;;;;;0.81;100.00;99175.53;6106432;19;20002;-70
2024/03/17 05:23:32;;;;;;;11.45;4.15;;;;;;;0.83;100.00;99177.97;6105882;19;20066;-70
2024/03/17 05:25:36;;;;;;;8.50;4.03;;;;;;;0.84;100.00;99179.59;6102674;19;19995;-70
2024/03/17 05:27:36;;;;;;;4.88;3.10;;;;;;;0.86;100.00;99179.28;6106166;19;20036;-70
2024/03/17 05:29:37;;;;;;;5.90;3.10;;;;;;;0.85;100.00;99181.19;6107072;19;20002;-70
2024/03/17 05:31:39;;;;;;;7.35;3.58;;;;;;;0.79;100.00;99182.38;6105980;19;20340;-70
2024/03/17 05:33:39;;;;;;;6.90;3.50;;;;;;;0.80;100.00;99195.69;6104141;19;20024;-70
2024/03/17 05:35:39;;;;;;;20.58;7.38;;;;;;;0.72;100.00;99192.84;6104036;19;20397;-70
2024/03/17 05:37:40;;;;;;;19.90;7.97;;;;;;;0.75;100.00;99189.53;6105690;19;20318;-70
2024/03/17 05:39:41;;;;;;;12.43;7.15;;;;;;;0.78;100.00;99180.78;6106501;19;20010;-70
2024/03/17 05:41:43;;;;;;;10.73;5.05;;;;;;;0.80;100.00;99181.28;6105876;19;20575;-70
2024/03/17 05:43:43;;;;;;;8.73;4.43;;;;;;;0.83;100.00;99189.69;6105513;19;20024;-70
2024/03/17 05:45:44;;;;;;;6.25;4.13;;;;;;;0.86;100.00;99187.47;6104036;19;20467;-70
2024/03/17 05:47:44;;;;;;;9.45;3.97;;;;;;;0.86;100.00;99179.28;6106609;19;20007;-70
2024/03/17 05:49:45;;;;;;;10.57;4.15;;;;;;;0.89;100.00;99186.84;6105906;19;20002;-70
2024/03/17 05:51:45;;;;;;;7.63;4.63;;;;;;;0.86;100.00;99187.47;6104986;19;20003;-70
2024/03/17 05:53:46;;;;;;;9.57;5.30;;;;;;;0.87;100.00;99192.59;6110984;19;20499;-70
2024/03/17 05:55:46;;;;;;;10.50;5.35;;;;;;;0.89;100.00;99190.38;6109155;19;20086;-70
2024/03/17 05:57:47;;;;;;;9.35;5.47;;;;;;;0.90;100.00;99191.19;6111482;19;20017;-70
2024/03/17 05:59:47;;;;;;;8.93;5.15;;;;;;;0.90;100.00;99183.81;6111172;19;20022;-70
2024/03/17 06:01:47;;;;;;;11.18;6.10;;;;;;;0.89;100.00;99200.47;6111159;19;20010;-70
2024/03/17 06:03:48;;;;;;;11.40;5.88;;;;;;;0.91;100.00;99199.09;6111643;19;20086;-70
2024/03/17 06:05:48;;;;;;;11.50;5.50;;;;;;;0.96;100.00;99203.63;6108610;19;20066;-70
2024/03/17 06:07:48;;;;;;;16.88;6.97;;;;;;;1.00;100.00;99200.03;6111635;19;20048;-70
2024/03/17 06:09:49;;;;;;;10.65;5.25;;;;;;;1.04;100.00;99205.69;6107527;19;20066;-70
2024/03/17 06:11:50;;;;;;;7.78;4.93;;;;;;;1.01;100.00;99204.38;6104356;19;20086;-70
2024/03/17 06:13:50;;;;;;;15.55;7.82;;;;;;;1.05;100.00;99201.84;6104142;19;20989;-70
2024/03/17 06:15:51;;;;;;;11.85;5.82;;;;;;;1.08;100.00;99204.00;6100428;19;20010;-70
2024/03/17 06:17:52;;;;;;;10.77;5.28;;;;;;;1.10;100.00;99202.59;6103047;19;20006;-70
2024/03/17 06:19:53;;;;;;;10.73;4.70;;;;;;;1.09;100.00;99202.88;6104348;19;20011;-70
2024/03/17 06:21:53;;;;;;;11.13;4.75;;;;;;;1.15;100.00;99215.31;6104150;19;20260;-70
2024/03/17 06:23:54;;;;;;;7.35;4.93;;;;;;;1.13;100.00;99212.88;6103535;19;20416;-70
2024/03/17 06:25:55;;;;;;;16.95;6.00;;;;;;;1.17;100.00;99209.56;6101901;19;20014;-70
2024/03/17 06:27:57;;;;;;;10.45;5.70;;;;;;;1.23;100.00;99205.63;6103917;19;20023;-70
2024/03/17 06:29:57;;;;;;;8.33;5.23;;;;;;;1.27;100.00;99210.22;6103073;19;20014;-70
2024/03/17 06:31:57;;;;;;;9.30;4.95;;;;;;;1.30;100.00;99197.88;6103585;19;20006;-70
2024/03/17 06:33:58;;;;;;;11.27;5.47;;;;;;;1.35;100.00;99197.81;6098948;19;20349;-70
2024/03/17 06:36:04;;;;;;;9.27;5.45;;;;;;;1.42;100.00;99200.16;6100369;19;20010;-70
2024/03/17 06:38:04;;;;;;;9.10;5.30;;;;;;;1.44;100.00;99204.19;6102760;19;20361;-70
2024/03/17 06:40:05;;;;;;;11.77;5.95;;;;;;;1.49;100.00;99219.63;6103047;19;19999;-71
2024/03/17 06:42:06;;;;;;;9.40;5.25;;;;;;;1.51;100.00;99204.59;6102487;19;20007;-70
2024/03/17 06:44:06;;;;;;;9.25;5.50;;;;;;;1.58;100.00;99206.94;6103390;19;20018;-70
2024/03/17 06:46:07;;;;;;;12.30;5.75;;;;;;;1.61;100.00;99209.06;6100296;19;20010;-70
2024/03/17 06:48:08;;;;;;;11.02;6.07;;;;;;;1.65;100.00;99207.34;6103024;19;20010;-70
2024/03/17 06:50:09;;;;;;;11.70;6.20;;;;;;;1.71;100.00;99206.13;6102322;19;20776;-70
2024/03/17 06:52:10;;;;;;;10.70;5.70;;;;;;;1.74;100.00;99208.28;6103357;19;19999;-70
2024/03/17 06:54:10;;;;;;;13.25;5.85;;;;;;;1.80;100.00;99203.50;6102290;19;20022;-71
2024/03/17 06:56:10;;;;;;;10.40;5.75;;;;;;;1.86;100.00;99211.31;6099990;19;20011;-70
2024/03/17 06:58:10;;;;;;;9.95;6.25;;;;;;;1.91;100.00;99204.94;6102779;19;20003;-70
2024/03/17 07:00:14;;;;;;;10.98;6.32;;;;;;;1.98;100.00;99199.88;6102992;19;20475;-70
2024/03/17 07:02:17;;;;;;;11.73;7.00;;;;;;;2.03;100.00;99204.44;6103441;19;20015;-70
2024/03/17 07:04:17;;;;;;;16.73;6.68;;;;;;;2.12;100.00;99203.41;6102397;19;20066;-70
2024/03/17 07:06:17;;;;;;;7.63;4.97;;;;;;;2.19;100.00;99195.63;6101830;19;20334;-70
2024/03/17 07:08:19;;;;;;;6.85;4.55;;;;;;;2.25;100.00;99201.78;6103213;19;20007;-71
2024/03/17 07:10:20;;;;;;;7.45;4.78;;;;;;;2.33;100.00;99197.53;6105999;19;20006;-70
2024/03/17 07:12:20;;;;;;;9.20;4.50;;;;;;;2.38;100.00;99200.94;6110579;19;20013;-70
2024/03/17 07:14:20;;;;;;;8.00;4.65;;;;;;;2.44;100.00;99197.00;6110557;19;20018;-71
2024/03/17 07:16:21;;;;;;;7.95;4.55;;;;;;;2.50;100.00;99194.97;6108221;19;20030;-71
2024/03/17 07:18:22;;;;;;;6.82;4.47;;;;;;;2.59;100.00;99198.59;6109150;19;20006;-70
2024/03/17 07:20:22;;;;;;;10.98;5.45;;;;;;;2.63;100.00;99202.28;6110388;19;20038;-71
2024/03/17 07:22:25;;;;;;;7.57;4.88;;;;;;;2.68;100.00;99199.47;6108321;19;20013;-71
2024/03/17 07:24:27;;;;;;;9.13;4.70;;;;;;;2.74;100.00;99198.25;6109216;19;20007;-70
2024/03/17 07:26:27;;;;;;;10.98;4.80;;;;;;;2.79;100.00;99198.09;6107679;19;20006;-70
2024/03/17 07:28:28;;;;;;;6.28;4.30;;;;;;;2.83;100.00;99201.03;6109253;19;20460;-71
2024/03/17 07:30:28;;;;;;;6.10;4.45;;;;;;;2.88;100.00;99197.34;6109932;19;20023;-70
2024/03/17 07:32:28;;;;;;;5.75;4.10;;;;;;;2.92;100.00;99195.63;6108150;19;20014;-71
2024/03/17 07:34:31;;;;;;;5.20;3.63;;;;;;;2.93;100.00;99195.31;6108405;19;20002;-71
2024/03/17 07:36:31;;;;;;;;;;;;;;;3.04;100.00;99195.88;6109301;19;20022;-70
2024/03/17 07:38:32;;;;;;;7.25;4.07;;;;;;;3.08;100.00;99197.69;6108651;19;20738;-70
2024/03/17 07:40:33;;;;;;;5.30;4.25;;;;;;;3.14;100.00;99201.09;6109142;19;20018;-70
2024/03/17 07:42:34;;;;;;;6.57;4.38;;;;;;;3.21;100.00;99201.47;6109210;19;20706;-70
2024/03/17 07:44:34;;;;;;;7.03;3.65;;;;;;;3.24;100.00;99195.38;6109687;19;20036;-70
2024/03/17 07:46:34;;;;;;;5.82;3.92;;;;;;;3.24;100.00;99189.91;6106812;19;20335;-70
2024/03/17 07:48:36;;;;;;;8.10;4.75;;;;;;;3.26;100.00;99190.41;6109578;19;20006;-70
2024/03/17 07:50:37;;;;;;;6.93;3.92;;;;;;;3.26;100.00;99179.47;6108827;19;20040;-70
2024/03/17 07:52:37;;;;;;;7.00;4.65;;;;;;;3.24;100.00;99184.44;6108914;19;20014;-70
2024/03/17 07:54:38;;;;;;;5.90;4.03;;;;;;;3.26;100.00;99193.13;6108992;19;20087;-70
2024/03/17 07:56:38;;;;;;;8.07;4.72;;;;;;;3.27;100.00;99188.47;6108430;19;20086;-70
2024/03/17 07:58:40;;;;;;;10.98;4.70;;;;;;;3.31;100.00;99189.44;6108845;19;20673;-70
2024/03/17 08:00:41;;;;;;;9.77;5.55;;;;;;;3.34;100.00;99197.84;6107822;19;20299;-70
2024/03/17 08:02:44;;;;;;;7.15;5.05;;;;;;;3.40;100.00;99198.53;6107009;19;20026;-70
2024/03/17 08:04:45;;;;;;;11.82;5.57;;;;;;;3.43;100.00;99202.56;6108646;19;20299;-70
2024/03/17 08:06:45;;;;;;;7.13;4.70;;;;;;;3.47;100.00;99201.63;6106228;19;20066;-70
2024/03/17 08:08:45;;;;;;;7.63;4.65;;;;;;;3.51;100.00;99193.59;6109307;19;20400;-70
2024/03/17 08:10:48;;;;;;;9.18;4.47;;;;;;;3.54;100.00;99187.50;6107195;19;20002;-70
2024/03/17 08:12:48;;;;;;;8.35;4.28;;;;;;;3.60;100.00;99184.31;6109178;19;20003;-70
2024/03/17 08:14:48;;;;;;;7.40;4.30;;;;;;;3.65;100.00;99186.13;6106522;19;20003;-70
2024/03/17 08:16:49;;;;;;;7.10;4.03;;;;;;;3.67;100.00;99179.19;6104280;19;20017;-70
2024/03/17 08:18:49;;;;;;;6.68;5.00;;;;;;;3.76;100.00;99184.72;6108721;19;20007;-70
2024/03/17 08:20:49;;;;;;;6.93;4.78;;;;;;;3.89;100.00;99185.72;6107236;19;20002;-70
2024/03/17 08:22:49;;;;;;;10.63;5.28;;;;;;;3.97;100.00;99181.38;6104377;19;20014;-70
2024/03/17 08:24:50;;;;;;;9.85;5.18;;;;;;;4.02;100.00;99184.00;6104489;19;20408;-70
2024/03/17 08:26:50;;;;;;;8.65;5.00;;;;;;;4.08;100.00;99188.22;6103906;19;20017;-70
2024/03/17 08:28:50;;;;;;;8.05;4.88;;;;;;;4.09;100.00;99179.66;6105600;19;20009;-70
2024/03/17 08:30:56;;;;;;;7.78;4.88;;;;;;;4.15;100.00;99183.06;6107234;19;20007;-70
2024/03/17 08:32:57;;;;;;;9.68;5.55;;;;;;;4.17;100.00;99181.63;6102172;19;20089;-70
2024/03/17 08:34:57;;;;;;;10.55;5.15;;;;;;;4.28;100.00;99179.38;6101622;19;20052;-70
2024/03/17 08:36:57;;;;;;;7.82;4.90;;;;;;;4.35;100.00;99184.41;6103183;19;21194;-70
2024/03/17 08:38:58;;;;;;;11.30;5.50;;;;;;;4.43;100.00;99183.59;6102817;19;20003;-70
2024/03/17 08:41:04;;;;;;;11.68;5.45;;;;;;;4.49;100.00;99180.41;6106834;19;20017;-70
2024/03/17 08:43:04;;;;;;;10.20;4.88;;;;;;;4.56;100.00;99179.13;6107134;19;20006;-70
2024/03/17 08:45:05;;;;;;;8.13;5.10;;;;;;;4.63;100.00;99182.97;6106954;19;20017;-70
2024/03/17 08:47:06;;;;;;;7.45;5.32;;;;;;;4.71;100.00;99170.41;6106138;19;20627;-70
2024/03/17 08:49:06;;;;;;;10.98;5.60;;;;;;;4.86;100.00;99180.06;6107861;19;20011;-70
2024/03/17 08:51:08;;;;;;;12.90;7.05;;;;;;;4.94;100.00;99179.28;6107701;19;20350;-70
2024/03/17 08:53:08;;;;;;;16.00;6.97;;;;;;;5.02;100.00;99168.28;6107894;19;20011;-70
2024/03/17 08:55:09;;;;;;;10.23;6.60;;;;;;;5.10;100.00;99172.16;6107121;19;20282;-70
2024/03/17 08:57:10;;;;;;;7.55;4.85;;;;;;;5.14;100.00;99161.34;6105361;19;20006;-70
2024/03/17 08:59:12;;;;;;;11.10;6.07;;;;;;;5.24;100.00;99167.31;6106801;19;20017;-70
2024/03/17 09:01:15;;;;;;;11.10;6.15;;;;;;;5.27;100.00;99160.34;6106440;19;20014;-70
2024/03/17 09:03:16;;;;;;;11.85;6.70;;;;;;;5.32;100.00;99160.97;6108007;19;20390;-70
2024/03/17 09:05:16;;;;;;;14.65;7.05;;;;;;;5.36;100.00;99150.16;6107277;19;20014;-70
2024/03/17 09:07:17;;;;;;;11.82;6.35;;;;;;;5.47;100.00;99156.13;6105248;19;20007;-70
2024/03/17 09:09:17;;;;;;;11.60;6.55;;;;;;;5.54;100.00;99148.97;6106840;19;20499;-70
2024/03/17 09:11:17;;;;;;;11.02;6.47;;;;;;;5.64;100.00;99156.06;6107085;19;20026;-70
2024/03/17 09:13:19;;;;;;;10.90;6.97;;;;;;;5.71;100.00;99153.59;6107228;19;20007;-70
2024/03/17 09:15:20;;;;;;;12.00;7.00;;;;;;;5.80;100.00;99150.81;6105356;19;20455;-70
2024/03/17 09:17:20;;;;;;;15.07;7.22;;;;;;;5.84;100.00;99158.06;6106989;19;20331;-70
2024/03/17 09:19:21;;;;;;;11.00;7.60;;;;;;;5.90;100.00;99156.78;6106595;19;20006;-70
2024/03/17 09:21:22;;;;;;;13.55;7.40;;;;;;;5.93;100.00;99159.97;6106776;19;20015;-70
2024/03/17 09:23:23;;;;;;;13.63;6.97;;;;;;;5.93;100.00;99163.53;6107337;19;20014;-70
2024/03/17 09:25:23;;;;;;;12.70;7.80;;;;;;;6.02;100.00;99166.22;6105931;19;20328;-70
2024/03/17 09:27:25;;;;;;;12.38;7.03;;;;;;;6.01;100.00;99153.63;6109044;19;20419;-70